Graceville, Florida
Current Conditions -  °F | °C
As of 1:58 PM on Sunday 25 Jan 2015 (Local Time) from K1J0 Reporting Station
Few Clouds Few Clouds  
Wind Chill: 63°   Ceiling: Unl
Heat Index: 63°   Visibility: 10mi
Dew Point: 43°   Wind: 10mph
Humidity: 48%   Direction: 230°SW
Pressure: 29.9"   Gusts: 25mph
Location:  30.96°N, 85.52°W
Report Text: K1J0 251958Z AUTO 23009G22KT 190V250 10SM FEW050 17/06 A2990 RMK AO2 SLP110 T01720061 $
Loading
Personal Weather Stations






























Interactive Weather Map New forecast layout! Learn more

10-Day Weather Forecast

Advertisements
Track Severe Weather on mobile